sensor_id;sensor_type;location;lat;lon;timestamp;pressure;altitude;pressure_sealevel;temperature;humidity
46944;BME280;32678;43.852;25.952;2023-06-04T00:04:51;101448.03;;;20.34;39.69
46944;BME280;32678;43.852;25.952;2023-06-04T00:09:48;101444.63;;;20.32;39.75
46944;BME280;32678;43.852;25.952;2023-06-04T00:14:45;101452.88;;;20.13;39.75
46944;BME280;32678;43.852;25.952;2023-06-04T00:19:42;101446.00;;;20.23;39.29
46944;BME280;32678;43.852;25.952;2023-06-04T00:24:38;101441.91;;;20.04;39.24
46944;BME280;32678;43.852;25.952;2023-06-04T00:29:36;101452.31;;;19.64;38.95
46944;BME280;32678;43.852;25.952;2023-06-04T00:34:33;101447.22;;;19.45;39.44
46944;BME280;32678;43.852;25.952;2023-06-04T00:39:30;101449.91;;;19.60;38.92
46944;BME280;32678;43.852;25.952;2023-06-04T00:44:27;101459.56;;;19.76;38.07
46944;BME280;32678;43.852;25.952;2023-06-04T00:49:24;101428.28;;;19.66;37.87
46944;BME280;32678;43.852;25.952;2023-06-04T00:54:22;101441.59;;;19.80;37.95
46944;BME280;32678;43.852;25.952;2023-06-04T00:59:21;101449.84;;;19.75;38.18
46944;BME280;32678;43.852;25.952;2023-06-04T01:04:20;101434.31;;;19.98;37.87
46944;BME280;32678;43.852;25.952;2023-06-04T01:09:19;101450.28;;;19.98;37.97
46944;BME280;32678;43.852;25.952;2023-06-04T01:14:17;101462.81;;;20.10;37.85
46944;BME280;32678;43.852;25.952;2023-06-04T01:19:25;101456.75;;;20.08;37.64
46944;BME280;32678;43.852;25.952;2023-06-04T01:24:29;101458.84;;;20.03;37.82
46944;BME280;32678;43.852;25.952;2023-06-04T01:29:31;101443.16;;;19.98;38.28
46944;BME280;32678;43.852;25.952;2023-06-04T01:34:28;101457.22;;;20.00;38.33
46944;BME280;32678;43.852;25.952;2023-06-04T01:39:25;101461.25;;;20.36;37.68
46944;BME280;32678;43.852;25.952;2023-06-04T01:44:21;101463.34;;;20.30;37.98
46944;BME280;32678;43.852;25.952;2023-06-04T01:49:19;101475.03;;;20.28;38.03
46944;BME280;32678;43.852;25.952;2023-06-04T01:54:15;101475.56;;;20.05;38.72
46944;BME280;32678;43.852;25.952;2023-06-04T01:59:12;101475.56;;;19.61;39.38
46944;BME280;32678;43.852;25.952;2023-06-04T02:04:12;101479.69;;;19.66;39.72
46944;BME280;32678;43.852;25.952;2023-06-04T02:09:09;101486.06;;;19.64;39.60
46944;BME280;32678;43.852;25.952;2023-06-04T02:14:06;101491.66;;;19.43;40.05
46944;BME280;32678;43.852;25.952;2023-06-04T02:19:03;101481.88;;;19.28;40.69
46944;BME280;32678;43.852;25.952;2023-06-04T02:24:00;101493.22;;;19.16;41.14
46944;BME280;32678;43.852;25.952;2023-06-04T02:28:58;101492.34;;;19.16;41.35
46944;BME280;32678;43.852;25.952;2023-06-04T02:33:55;101505.81;;;19.28;41.00
46944;BME280;32678;43.852;25.952;2023-06-04T02:38:51;101506.69;;;19.13;41.40
46944;BME280;32678;43.852;25.952;2023-06-04T02:43:48;101515.06;;;19.37;41.38
46944;BME280;32678;43.852;25.952;2023-06-04T02:48:46;101524.97;;;19.65;40.97
46944;BME280;32678;43.852;25.952;2023-06-04T02:53:42;101524.84;;;19.36;41.28
46944;BME280;32678;43.852;25.952;2023-06-04T02:58:48;101520.56;;;19.34;41.73
46944;BME280;32678;43.852;25.952;2023-06-04T03:03:45;101529.28;;;19.36;41.67
46944;BME280;32678;43.852;25.952;2023-06-04T03:08:42;101532.34;;;19.30;42.06
46944;BME280;32678;43.852;25.952;2023-06-04T03:13:39;101539.50;;;19.43;41.65
46944;BME280;32678;43.852;25.952;2023-06-04T03:18:36;101544.56;;;19.64;41.68
46944;BME280;32678;43.852;25.952;2023-06-04T03:23:34;101544.75;;;19.45;42.11
46944;BME280;32678;43.852;25.952;2023-06-04T03:28:31;101556.00;;;19.34;42.14
46944;BME280;32678;43.852;25.952;2023-06-04T03:33:30;101552.88;;;19.42;42.49
46944;BME280;32678;43.852;25.952;2023-06-04T03:38:27;101557.56;;;19.54;42.30
46944;BME280;32678;43.852;25.952;2023-06-04T03:43:25;101560.88;;;19.73;42.11
46944;BME280;32678;43.852;25.952;2023-06-04T03:48:26;101561.16;;;19.53;42.84
46944;BME280;32678;43.852;25.952;2023-06-04T03:53:23;101563.28;;;19.15;43.71
46944;BME280;32678;43.852;25.952;2023-06-04T03:58:20;101569.25;;;18.87;44.74
46944;BME280;32678;43.852;25.952;2023-06-04T04:03:20;101553.63;;;18.66;45.17
46944;BME280;32678;43.852;25.952;2023-06-04T04:08:18;101575.44;;;19.03;44.71
46944;BME280;32678;43.852;25.952;2023-06-04T04:13:17;101572.22;;;19.14;44.61
46944;BME280;32678;43.852;25.952;2023-06-04T04:18:14;101575.03;;;18.95;45.07
46944;BME280;32678;43.852;25.952;2023-06-04T04:23:14;101583.81;;;18.80;45.40
46944;BME280;32678;43.852;25.952;2023-06-04T04:28:14;101590.88;;;18.97;45.29
46944;BME280;32678;43.852;25.952;2023-06-04T04:33:13;101590.94;;;19.44;44.28
46944;BME280;32678;43.852;25.952;2023-06-04T04:38:14;101595.03;;;19.34;44.44
46944;BME280;32678;43.852;25.952;2023-06-04T04:43:28;101600.75;;;19.26;43.80
46944;BME280;32678;43.852;25.952;2023-06-04T04:48:25;101593.22;;;19.19;43.60
46944;BME280;32678;43.852;25.952;2023-06-04T04:53:22;101600.22;;;19.04;44.15
46944;BME280;32678;43.852;25.952;2023-06-04T04:58:19;101602.13;;;19.18;44.18
46944;BME280;32678;43.852;25.952;2023-06-04T05:03:16;101613.66;;;19.01;44.49
46944;BME280;32678;43.852;25.952;2023-06-04T05:08:13;101605.34;;;18.91;44.90
46944;BME280;32678;43.852;25.952;2023-06-04T05:13:12;101611.72;;;19.04;44.51
46944;BME280;32678;43.852;25.952;2023-06-04T05:18:19;101611.72;;;19.04;44.90
46944;BME280;32678;43.852;25.952;2023-06-04T05:23:19;101617.13;;;19.19;44.78
46944;BME280;32678;43.852;25.952;2023-06-04T05:28:18;101614.13;;;19.09;45.30
46944;BME280;32678;43.852;25.952;2023-06-04T05:33:17;101617.28;;;19.49;44.75
46944;BME280;32678;43.852;25.952;2023-06-04T05:38:19;101635.41;;;19.40;45.23
46944;BME280;32678;43.852;25.952;2023-06-04T05:43:16;101635.81;;;19.96;44.25
46944;BME280;32678;43.852;25.952;2023-06-04T05:48:14;101634.91;;;19.81;43.91
46944;BME280;32678;43.852;25.952;2023-06-04T05:53:11;101639.91;;;19.56;45.28
46944;BME280;32678;43.852;25.952;2023-06-04T05:58:08;101641.88;;;19.83;45.06
46944;BME280;32678;43.852;25.952;2023-06-04T06:03:05;101650.88;;;19.81;45.05
46944;BME280;32678;43.852;25.952;2023-06-04T06:08:10;101652.78;;;19.63;45.95
46944;BME280;32678;43.852;25.952;2023-06-04T06:13:07;101652.00;;;19.61;45.55
46944;BME280;32678;43.852;25.952;2023-06-04T06:18:04;101657.66;;;19.55;46.21
46944;BME280;32678;43.852;25.952;2023-06-04T06:23:05;101660.09;;;19.44;46.19
46944;BME280;32678;43.852;25.952;2023-06-04T06:28:03;101659.97;;;19.45;46.48
46944;BME280;32678;43.852;25.952;2023-06-04T06:33:00;101665.22;;;19.47;46.12
46944;BME280;32678;43.852;25.952;2023-06-04T06:37:57;101667.38;;;19.56;46.44
46944;BME280;32678;43.852;25.952;2023-06-04T06:42:54;101664.84;;;19.37;47.33
46944;BME280;32678;43.852;25.952;2023-06-04T06:47:51;101667.50;;;19.84;46.70
46944;BME280;32678;43.852;25.952;2023-06-04T06:52:49;101677.31;;;20.29;46.29
46944;BME280;32678;43.852;25.952;2023-06-04T06:57:46;101679.66;;;20.36;46.38
46944;BME280;32678;43.852;25.952;2023-06-04T07:02:43;101673.34;;;20.52;47.12
46944;BME280;32678;43.852;25.952;2023-06-04T07:07:41;101683.22;;;20.50;47.47
46944;BME280;32678;43.852;25.952;2023-06-04T07:12:37;101671.38;;;20.40;47.85
46944;BME280;32678;43.852;25.952;2023-06-04T07:17:39;101673.38;;;20.37;48.72
46944;BME280;32678;43.852;25.952;2023-06-04T07:22:35;101677.47;;;20.86;47.81
46944;BME280;32678;43.852;25.952;2023-06-04T07:27:33;101679.38;;;21.41;47.03
46944;BME280;32678;43.852;25.952;2023-06-04T07:32:30;101690.63;;;21.03;48.26
46944;BME280;32678;43.852;25.952;2023-06-04T07:37:26;101681.38;;;20.95;48.40
46944;BME280;32678;43.852;25.952;2023-06-04T07:42:23;101674.84;;;21.14;48.51
46944;BME280;32678;43.852;25.952;2023-06-04T07:47:20;101675.38;;;21.48;47.61
46944;BME280;32678;43.852;25.952;2023-06-04T07:52:17;101672.72;;;21.48;45.78
46944;BME280;32678;43.852;25.952;2023-06-04T07:57:13;101678.06;;;21.75;44.85
46944;BME280;32678;43.852;25.952;2023-06-04T08:02:11;101681.13;;;22.10;43.97
46944;BME280;32678;43.852;25.952;2023-06-04T08:07:08;101666.50;;;22.55;42.58
46944;BME280;32678;43.852;25.952;2023-06-04T08:12:05;101677.59;;;22.48;39.88
46944;BME280;32678;43.852;25.952;2023-06-04T08:17:06;101676.84;;;22.59;38.18
46944;BME280;32678;43.852;25.952;2023-06-04T08:22:03;101672.38;;;22.60;37.41
46944;BME280;32678;43.852;25.952;2023-06-04T08:27:00;101683.03;;;22.86;37.17
46944;BME280;32678;43.852;25.952;2023-06-04T08:31:57;101688.38;;;22.86;36.92
46944;BME280;32678;43.852;25.952;2023-06-04T08:36:54;101689.59;;;22.56;38.82
46944;BME280;32678;43.852;25.952;2023-06-04T08:41:51;101685.66;;;23.12;37.04
46944;BME280;32678;43.852;25.952;2023-06-04T08:46:51;101690.34;;;23.46;35.77
46944;BME280;32678;43.852;25.952;2023-06-04T08:51:47;101695.69;;;23.46;36.55
46944;BME280;32678;43.852;25.952;2023-06-04T08:56:44;101683.19;;;23.34;36.56
46944;BME280;32678;43.852;25.952;2023-06-04T09:01:42;101682.00;;;23.38;37.57
46944;BME280;32678;43.852;25.952;2023-06-04T09:06:40;101689.06;;;23.52;36.77
46944;BME280;32678;43.852;25.952;2023-06-04T09:11:39;101693.63;;;23.99;35.74
46944;BME280;32678;43.852;25.952;2023-06-04T09:16:44;101699.84;;;23.99;35.93
46944;BME280;32678;43.852;25.952;2023-06-04T09:21:48;101695.81;;;24.17;36.41
46944;BME280;32678;43.852;25.952;2023-06-04T09:26:48;101698.88;;;23.64;36.85
46944;BME280;32678;43.852;25.952;2023-06-04T09:31:45;101676.56;;;23.27;36.75
46944;BME280;32678;43.852;25.952;2023-06-04T09:36:42;101705.59;;;23.20;36.35
46944;BME280;32678;43.852;25.952;2023-06-04T09:41:40;101703.09;;;23.55;34.87
46944;BME280;32678;43.852;25.952;2023-06-04T09:46:36;101697.88;;;23.78;34.77
46944;BME280;32678;43.852;25.952;2023-06-04T09:51:33;101694.75;;;23.84;35.80
46944;BME280;32678;43.852;25.952;2023-06-04T09:56:38;101703.91;;;23.68;36.94
46944;BME280;32678;43.852;25.952;2023-06-04T10:01:38;101701.59;;;23.88;35.40
46944;BME280;32678;43.852;25.952;2023-06-04T10:06:35;101707.16;;;24.21;35.48
46944;BME280;32678;43.852;25.952;2023-06-04T10:11:34;101691.06;;;24.21;35.36
46944;BME280;32678;43.852;25.952;2023-06-04T10:16:31;101689.44;;;23.95;35.79
46944;BME280;32678;43.852;25.952;2023-06-04T10:21:31;101688.94;;;24.13;34.89
46944;BME280;32678;43.852;25.952;2023-06-04T10:26:32;101690.31;;;24.19;34.25
46944;BME280;32678;43.852;25.952;2023-06-04T10:31:29;101685.06;;;23.94;34.98
46944;BME280;32678;43.852;25.952;2023-06-04T10:36:26;101683.19;;;23.83;37.63
46944;BME280;32678;43.852;25.952;2023-06-04T10:41:25;101682.84;;;24.35;34.38
46944;BME280;32678;43.852;25.952;2023-06-04T10:46:22;101674.13;;;23.97;36.05
46944;BME280;32678;43.852;25.952;2023-06-04T10:51:28;101671.78;;;23.92;35.50
46944;BME280;32678;43.852;25.952;2023-06-04T10:56:26;101665.28;;;23.84;36.10
46944;BME280;32678;43.852;25.952;2023-06-04T11:01:24;101662.28;;;23.88;36.21
46944;BME280;32678;43.852;25.952;2023-06-04T11:06:21;101652.75;;;24.08;35.73
46944;BME280;32678;43.852;25.952;2023-06-04T11:11:20;101658.56;;;24.26;35.43
46944;BME280;32678;43.852;25.952;2023-06-04T11:16:19;101657.28;;;23.95;35.73
46944;BME280;32678;43.852;25.952;2023-06-04T11:21:16;101664.44;;;23.59;36.98
46944;BME280;32678;43.852;25.952;2023-06-04T11:26:13;101656.63;;;23.44;35.23
46944;BME280;32678;43.852;25.952;2023-06-04T11:31:10;101656.31;;;23.48;35.39
46944;BME280;32678;43.852;25.952;2023-06-04T11:36:08;101654.16;;;23.53;35.15
46944;BME280;32678;43.852;25.952;2023-06-04T11:41:05;101652.28;;;23.66;35.42
46944;BME280;32678;43.852;25.952;2023-06-04T11:46:06;101650.75;;;23.75;35.52
46944;BME280;32678;43.852;25.952;2023-06-04T11:51:08;101643.34;;;24.02;35.76
46944;BME280;32678;43.852;25.952;2023-06-04T11:56:05;101651.31;;;23.91;34.55
46944;BME280;32678;43.852;25.952;2023-06-04T12:01:02;101645.44;;;23.86;34.35
46944;BME280;32678;43.852;25.952;2023-06-04T12:05:59;101634.03;;;23.84;34.09
46944;BME280;32678;43.852;25.952;2023-06-04T12:11:08;101633.72;;;23.76;35.23
46944;BME280;32678;43.852;25.952;2023-06-04T12:16:05;101631.59;;;23.92;34.54
46944;BME280;32678;43.852;25.952;2023-06-04T12:21:02;101638.47;;;24.31;34.52
46944;BME280;32678;43.852;25.952;2023-06-04T12:25:59;101642.13;;;24.06;34.54
46944;BME280;32678;43.852;25.952;2023-06-04T12:30:59;101642.94;;;24.20;33.13
46944;BME280;32678;43.852;25.952;2023-06-04T12:35:55;101641.44;;;24.15;33.83
46944;BME280;32678;43.852;25.952;2023-06-04T12:40:52;101639.31;;;24.21;33.05
46944;BME280;32678;43.852;25.952;2023-06-04T12:45:49;101640.56;;;24.39;32.68
46944;BME280;32678;43.852;25.952;2023-06-04T12:50:46;101637.44;;;24.56;32.63
46944;BME280;32678;43.852;25.952;2023-06-04T12:55:43;101638.78;;;24.50;32.57
46944;BME280;32678;43.852;25.952;2023-06-04T13:00:40;101640.69;;;24.37;34.39
46944;BME280;32678;43.852;25.952;2023-06-04T13:05:37;101641.41;;;24.39;33.18
46944;BME280;32678;43.852;25.952;2023-06-04T13:10:34;101628.28;;;24.58;33.49
46944;BME280;32678;43.852;25.952;2023-06-04T13:15:31;101638.66;;;24.63;32.80
46944;BME280;32678;43.852;25.952;2023-06-04T13:20:30;101634.94;;;24.77;33.84
46944;BME280;32678;43.852;25.952;2023-06-04T13:25:28;101634.06;;;24.76;32.71
46944;BME280;32678;43.852;25.952;2023-06-04T13:30:27;101628.78;;;24.64;33.09
46944;BME280;32678;43.852;25.952;2023-06-04T13:35:24;101626.34;;;24.49;33.32
46944;BME280;32678;43.852;25.952;2023-06-04T13:40:20;101627.31;;;24.37;33.54
46944;BME280;32678;43.852;25.952;2023-06-04T13:45:17;101624.28;;;24.53;33.01
46944;BME280;32678;43.852;25.952;2023-06-04T13:50:16;101624.41;;;24.74;33.86
46944;BME280;32678;43.852;25.952;2023-06-04T13:55:13;101603.78;;;24.41;34.21
46944;BME280;32678;43.852;25.952;2023-06-04T14:00:10;101617.81;;;24.55;33.45
46944;BME280;32678;43.852;25.952;2023-06-04T14:05:09;101622.41;;;24.99;32.55
46944;BME280;32678;43.852;25.952;2023-06-04T14:10:07;101607.84;;;24.80;32.57
46944;BME280;32678;43.852;25.952;2023-06-04T14:15:04;101602.22;;;24.60;33.40
46944;BME280;32678;43.852;25.952;2023-06-04T14:20:03;101609.84;;;25.00;33.70
46944;BME280;32678;43.852;25.952;2023-06-04T14:25:03;101601.41;;;24.71;33.46
46944;BME280;32678;43.852;25.952;2023-06-04T14:30:04;101598.50;;;24.96;32.47
46944;BME280;32678;43.852;25.952;2023-06-04T14:35:01;101600.06;;;24.99;33.50
46944;BME280;32678;43.852;25.952;2023-06-04T14:39:58;101595.44;;;25.12;32.76
46944;BME280;32678;43.852;25.952;2023-06-04T14:44:55;101588.25;;;25.01;33.42
46944;BME280;32678;43.852;25.952;2023-06-04T14:49:53;101585.47;;;24.92;32.85
46944;BME280;32678;43.852;25.952;2023-06-04T14:54:50;101571.06;;;24.93;32.72
46944;BME280;32678;43.852;25.952;2023-06-04T14:59:49;101581.41;;;24.97;32.79
46944;BME280;32678;43.852;25.952;2023-06-04T15:04:50;101582.38;;;25.19;32.55
46944;BME280;32678;43.852;25.952;2023-06-04T15:09:48;101576.88;;;25.31;32.39
46944;BME280;32678;43.852;25.952;2023-06-04T15:14:45;101577.47;;;25.24;32.73
46944;BME280;32678;43.852;25.952;2023-06-04T15:19:42;101566.06;;;24.99;32.91
46944;BME280;32678;43.852;25.952;2023-06-04T15:24:39;101570.78;;;25.07;33.11
46944;BME280;32678;43.852;25.952;2023-06-04T15:29:36;101570.94;;;24.94;33.31
46944;BME280;32678;43.852;25.952;2023-06-04T15:34:43;101568.00;;;25.09;33.91
46944;BME280;32678;43.852;25.952;2023-06-04T15:39:40;101568.38;;;25.04;33.44
46944;BME280;32678;43.852;25.952;2023-06-04T15:44:38;101569.81;;;25.19;33.33
46944;BME280;32678;43.852;25.952;2023-06-04T15:49:35;101566.44;;;25.06;33.28
46944;BME280;32678;43.852;25.952;2023-06-04T15:54:32;101571.06;;;24.93;33.88
46944;BME280;32678;43.852;25.952;2023-06-04T15:59:43;101568.63;;;25.01;34.06
46944;BME280;32678;43.852;25.952;2023-06-04T16:04:41;101567.22;;;25.40;33.64
46944;BME280;32678;43.852;25.952;2023-06-04T16:09:38;101564.50;;;24.97;34.48
46944;BME280;32678;43.852;25.952;2023-06-04T16:14:35;101559.22;;;24.84;34.02
46944;BME280;32678;43.852;25.952;2023-06-04T16:19:32;101564.22;;;25.00;34.74
46944;BME280;32678;43.852;25.952;2023-06-04T16:24:30;101561.06;;;24.95;34.61
46944;BME280;32678;43.852;25.952;2023-06-04T16:29:26;101565.56;;;24.94;35.21
46944;BME280;32678;43.852;25.952;2023-06-04T16:34:24;101557.75;;;25.02;35.48
46944;BME280;32678;43.852;25.952;2023-06-04T16:39:21;101568.34;;;25.15;35.17
46944;BME280;32678;43.852;25.952;2023-06-04T16:44:18;101572.97;;;25.13;35.42
46944;BME280;32678;43.852;25.952;2023-06-04T16:49:17;101571.16;;;25.14;35.11
46944;BME280;32678;43.852;25.952;2023-06-04T16:54:14;101575.13;;;25.41;34.62
46944;BME280;32678;43.852;25.952;2023-06-04T16:59:16;101574.97;;;25.54;34.41
46944;BME280;32678;43.852;25.952;2023-06-04T17:04:13;101564.47;;;25.62;34.63
46944;BME280;32678;43.852;25.952;2023-06-04T17:09:10;101566.47;;;25.81;32.69
46944;BME280;32678;43.852;25.952;2023-06-04T17:14:07;101568.06;;;25.83;31.41
46944;BME280;32678;43.852;25.952;2023-06-04T17:19:05;101579.59;;;25.95;30.94
46944;BME280;32678;43.852;25.952;2023-06-04T17:24:04;101582.16;;;25.97;31.05
46944;BME280;32678;43.852;25.952;2023-06-04T17:29:01;101579.81;;;26.03;30.63
46944;BME280;32678;43.852;25.952;2023-06-04T17:33:58;101588.13;;;26.21;30.59
46944;BME280;32678;43.852;25.952;2023-06-04T17:38:55;101586.50;;;26.29;30.21
46944;BME280;32678;43.852;25.952;2023-06-04T17:43:52;101592.16;;;26.26;30.71
46944;BME280;32678;43.852;25.952;2023-06-04T17:48:51;101583.31;;;26.36;31.16
46944;BME280;32678;43.852;25.952;2023-06-04T17:53:48;101585.59;;;26.40;31.33
46944;BME280;32678;43.852;25.952;2023-06-04T17:58:45;101590.84;;;26.42;30.29
46944;BME280;32678;43.852;25.952;2023-06-04T18:03:42;101573.94;;;26.30;30.53
46944;BME280;32678;43.852;25.952;2023-06-04T18:08:39;101599.94;;;26.29;30.68
46944;BME280;32678;43.852;25.952;2023-06-04T18:13:36;101602.75;;;26.07;30.91
46944;BME280;32678;43.852;25.952;2023-06-04T18:18:34;101603.06;;;25.93;31.17
46944;BME280;32678;43.852;25.952;2023-06-04T18:23:31;101608.63;;;26.01;31.50
46944;BME280;32678;43.852;25.952;2023-06-04T18:28:29;101602.47;;;25.90;37.01
46944;BME280;32678;43.852;25.952;2023-06-04T18:33:26;101616.06;;;25.77;37.18
46944;BME280;32678;43.852;25.952;2023-06-04T18:38:25;101626.69;;;25.78;36.04
46944;BME280;32678;43.852;25.952;2023-06-04T18:43:22;101613.78;;;25.61;34.55
46944;BME280;32678;43.852;25.952;2023-06-04T18:48:19;101632.19;;;25.66;33.80
46944;BME280;32678;43.852;25.952;2023-06-04T18:53:16;101643.41;;;25.71;34.67
46944;BME280;32678;43.852;25.952;2023-06-04T18:58:18;101650.06;;;25.56;39.12
46944;BME280;32678;43.852;25.952;2023-06-04T19:03:15;101643.97;;;25.31;36.81
46944;BME280;32678;43.852;25.952;2023-06-04T19:08:11;101643.09;;;24.86;37.67
46944;BME280;32678;43.852;25.952;2023-06-04T19:13:08;101647.16;;;24.92;36.36
46944;BME280;32678;43.852;25.952;2023-06-04T19:18:06;101644.91;;;24.75;36.03
46944;BME280;32678;43.852;25.952;2023-06-04T19:23:03;101655.38;;;24.78;35.66
46944;BME280;32678;43.852;25.952;2023-06-04T19:28:00;101645.59;;;24.54;36.90
46944;BME280;32678;43.852;25.952;2023-06-04T19:32:57;101630.84;;;24.49;37.58
46944;BME280;32678;43.852;25.952;2023-06-04T19:37:55;101641.06;;;24.09;37.03
46944;BME280;32678;43.852;25.952;2023-06-04T19:42:52;101653.13;;;23.67;37.75
46944;BME280;32678;43.852;25.952;2023-06-04T19:47:49;101648.81;;;23.53;37.53
46944;BME280;32678;43.852;25.952;2023-06-04T19:52:46;101648.28;;;23.36;38.34
46944;BME280;32678;43.852;25.952;2023-06-04T19:57:43;101645.19;;;23.29;39.14
46944;BME280;32678;43.852;25.952;2023-06-04T20:02:41;101640.81;;;23.28;39.93
46944;BME280;32678;43.852;25.952;2023-06-04T20:07:37;101616.25;;;22.98;40.46
46944;BME280;32678;43.852;25.952;2023-06-04T20:12:34;101637.13;;;23.05;40.58
46944;BME280;32678;43.852;25.952;2023-06-04T20:17:32;101636.34;;;23.16;40.35
46944;BME280;32678;43.852;25.952;2023-06-04T20:22:29;101644.22;;;23.55;38.97
46944;BME280;32678;43.852;25.952;2023-06-04T20:27:27;101641.56;;;23.66;38.71
46944;BME280;32678;43.852;25.952;2023-06-04T20:32:24;101646.56;;;23.84;37.87
46944;BME280;32678;43.852;25.952;2023-06-04T20:37:22;101631.03;;;24.00;37.59
46944;BME280;32678;43.852;25.952;2023-06-04T20:42:19;101650.53;;;24.26;36.70
46944;BME280;32678;43.852;25.952;2023-06-04T20:47:15;101656.22;;;23.97;37.15
46944;BME280;32678;43.852;25.952;2023-06-04T20:52:12;101658.59;;;23.65;38.04
46944;BME280;32678;43.852;25.952;2023-06-04T20:57:10;101655.84;;;23.42;38.18
46944;BME280;32678;43.852;25.952;2023-06-04T21:02:07;101656.34;;;23.23;37.55
46944;BME280;32678;43.852;25.952;2023-06-04T21:07:04;101658.47;;;23.80;36.63
46944;BME280;32678;43.852;25.952;2023-06-04T21:12:01;101659.59;;;24.12;36.37
46944;BME280;32678;43.852;25.952;2023-06-04T21:16:58;101661.84;;;24.18;38.78
46944;BME280;32678;43.852;25.952;2023-06-04T21:21:54;101666.03;;;24.33;39.59
46944;BME280;32678;43.852;25.952;2023-06-04T21:26:51;101659.97;;;24.53;39.75
46944;BME280;32678;43.852;25.952;2023-06-04T21:31:48;101666.00;;;24.79;39.44
46944;BME280;32678;43.852;25.952;2023-06-04T21:36:45;101655.31;;;24.90;39.00
46944;BME280;32678;43.852;25.952;2023-06-04T21:41:42;101653.25;;;24.94;39.73
46944;BME280;32678;43.852;25.952;2023-06-04T21:46:38;101651.78;;;25.12;40.98
46944;BME280;32678;43.852;25.952;2023-06-04T21:51:37;101651.28;;;25.18;40.65
46944;BME280;32678;43.852;25.952;2023-06-04T21:56:35;101651.06;;;24.99;35.63
46944;BME280;32678;43.852;25.952;2023-06-04T22:01:31;101642.81;;;24.56;36.69
46944;BME280;32678;43.852;25.952;2023-06-04T22:06:28;101650.00;;;24.21;39.79
46944;BME280;32678;43.852;25.952;2023-06-04T22:11:24;101637.63;;;24.31;40.84
46944;BME280;32678;43.852;25.952;2023-06-04T22:16:22;101634.59;;;24.35;38.89
46944;BME280;32678;43.852;25.952;2023-06-04T22:21:19;101631.25;;;23.97;37.98
46944;BME280;32678;43.852;25.952;2023-06-04T22:26:18;101635.88;;;23.95;39.54
46944;BME280;32678;43.852;25.952;2023-06-04T22:31:33;101643.63;;;23.87;41.53
46944;BME280;32678;43.852;25.952;2023-06-04T22:36:30;101650.69;;;23.88;43.69
46944;BME280;32678;43.852;25.952;2023-06-04T22:41:27;101653.31;;;23.77;44.44
46944;BME280;32678;43.852;25.952;2023-06-04T22:46:23;101644.75;;;23.71;45.16
46944;BME280;32678;43.852;25.952;2023-06-04T22:51:22;101649.16;;;23.96;44.25
46944;BME280;32678;43.852;25.952;2023-06-04T22:56:20;101645.06;;;24.03;43.97
46944;BME280;32678;43.852;25.952;2023-06-04T23:01:16;101628.88;;;24.29;43.15
46944;BME280;32678;43.852;25.952;2023-06-04T23:06:13;101634.03;;;24.19;43.55
46944;BME280;32678;43.852;25.952;2023-06-04T23:11:11;101642.53;;;24.13;44.52
46944;BME280;32678;43.852;25.952;2023-06-04T23:16:08;101626.38;;;23.67;44.94
46944;BME280;32678;43.852;25.952;2023-06-04T23:21:05;101627.16;;;24.04;44.26
46944;BME280;32678;43.852;25.952;2023-06-04T23:26:02;101607.09;;;23.86;44.93
46944;BME280;32678;43.852;25.952;2023-06-04T23:30:59;101624.31;;;23.94;45.37
46944;BME280;32678;43.852;25.952;2023-06-04T23:35:56;101624.44;;;23.69;46.64
46944;BME280;32678;43.852;25.952;2023-06-04T23:40:53;101628.34;;;23.52;46.83
46944;BME280;32678;43.852;25.952;2023-06-04T23:45:49;101628.38;;;23.40;46.61
46944;BME280;32678;43.852;25.952;2023-06-04T23:50:47;101635.31;;;23.06;46.75
46944;BME280;32678;43.852;25.952;2023-06-04T23:55:43;101642.16;;;22.84;46.45
